PAVA

Details ICAO PAVA (VAK)
Name CHEVAK
Region USA (Alaska)
Timezone America/Nome (UTC-9.0)
Plans Departing 1
Arriving 1
Stats Elevation 75 ft / 23 m (AMSL)
Location 61.533845° -165.583873°
Runways 1
Magnetic Variation 9.831° E
Sunrise 2017-12-14 20:16:10 UTC / 2017-12-14 11:16:10 Local
Sunset 2017-12-15 01:41:06 UTC / 2017-12-14 16:41:06 Local
Advertisement - Login to hide

Runways

ID Width Length Bearing (true) Bearing (mag) Surface Threshold Offset Overrun Length
14 49 ft / 15 m 2,675 ft / 815 m 157.71° 147.88° Gravel 0 ft / 0 m 161 ft / 49 m
32 49 ft / 15 m 2,675 ft / 815 m 337.71° 327.88° Gravel 0 ft / 0 m 151 ft / 46 m

Map

Weather


0- 5 10 15 20 25 30 35+ Temperature / ° C

Clouds and Precipitation
Forecast for 2017-12-15 12:00 UTC. Updated 2 hours ago

Ground ~20,000 ft ~40,000 ft Winds

METAR

PAVA 150956Z AUTO 07018KT 1 3/4SM -SN BR OVC003 M08/M08 A2939 RMK AO2 SLP040 P0000 T10781083 FZRANO

TAF

Not found

Frequencies

Unicom 123.00 MHz CTAF
Unicom 122.80 MHz UNICOM
Warning: Do not use this data for real-world aviation or navigation. No guarantee of current accuracy is given.